Saint Amand (59) - E

Date : 28/04/2013
Distance : 3,100 km

Place Nom Licence Catégorie Club Temps min/km CN à J-60 Points Différence Nouveau CN
1 HUMBERTCLAUDE J-Paul 16205 H65 5909NO 0:28:44 9'16 4305 4360 +55 4339
2 WULLUS J-Noel 9523 H60 5907NO 0:33:27 10'47 3416 3745 +329 3735
3 VAYSSAT Romain 21212 H14 6008PI 0:34:34 11'09 2408 3624 +1216 2566
4 URVOY Mateo 22540 H14 6203NO 0:34:46 11'12 2948 3603 +655 3314
5 EJSMONT Jean 5597 H65 6203NO 0:36:18 11'42 3951 3451 -500 4001
6 LUTZ Jean-Marc 7107 H60 5116CA 0:36:41 11'50 3787 3415 -372 3289
7 DUVAL Manon 25002 D14 0207PI 0:45:49 14'46 2663 2734 +71 2672
8 PONCE Bernard 971 H70 0801CA 0:46:47 15'05 2296 2678 +382 2709
9 GRENOUILLAT Annick 13087 D55 5907NO 0:49:07 15'50 3004 2550 -454 3121
10 GUENIN Justine 16949 D16 5116CA 0:50:21 16'14 2547 2488 -59 2542
11 BOULANGER Isabelle 10639 D55 5907NO 0:50:53 16'24 3276 2462 -814 3294
12 MOKHTARI Théo 25337 H14 6008PI 0:51:02 16'27 1382 2455 +1073 1354
13 LABROCHE Claire 26570 D14 0207PI 0:52:30 16'56 1670 2386 +716 2049
14 POULAIN Odile 1948 D50 5909NO 0:52:46 17'01 2901 2374 -527 2642
15 LAVALLEE Sylvan 26029 H14 6008PI 0:53:57 17'24 2223 2322 +99 2329
16 LECOYER Regis 2884 H60 0207PI 0:56:24 18'11 0 2221 2380
17 BLUM Sylvain 13672 H55 5116CA 0:57:05 18'24 2603 2194 -409 2618
18 LAMINETTE M-Odile 17201 D50 5907NO 0:58:00 18'42 2949 2160 -789 3018
19 GOZE Anne 22931 D55 5907NO 0:58:43 18'56 1495 2133 +638 1830
20 BAUD Sandrine 27612 D35 6203NO 1:08:34 22'07 0 1827 1587
21 LECOYER Annick 2885 D60 0207PI 1:09:53 22'32 2874 1793 -1081 2760
22 RICHARD Nicole 14245 D65 0207PI 1:13:38 23'45 3218 1701 -1517 3224
23 TORZ-DRUON Magali 10081 D60 5906NO 1:14:08 23'54 2480 1690 -790 2472
24 BERNET-ROLLANDE Esther 24708 D14 5907NO 1:15:45 24'26 1833 1654 -179 1760
25 DURIEZ Corinne 27971 D45 6203NO 1:17:29 24'59 1617 1116
26 EJSMONT Martine 14164 D65 6203NO 1:28:43 28'37 0 1412 1566
27 THERY Sophie 27606 D35 6203NO 1:30:04 29'03 1391 1260
28 RIMETZ Marcelline 22235 D60 6208NO 1:31:35 29'32 1937 1368 -569 2134
29 JANQUIN Sylvie 27605 D35 6203NO 1:34:08 30'21 0 1331 1238
30 LUDEWIG-JAMES Carol 15894 D70 5907NO 1:34:41 30'32 1984 1323 -661 1962
JUDAS Sylvaine 13635 D55 6208NO pm None 1860 0 2071